Time;durP1;ratioP1;P1;durP2;ratioP2;P2;SDS_P1;SDS_P2;PMS_P1;PMS_P2;Temp;Humidity;BMP_temperature;BMP_pressure;BME280_temperature;BME280_humidity;BME280_pressure;Samples;Min_cycle;Max_cycle;Signal;HPM_P1;HPM_P2
2022/08/21 00:00:49;;;;;;;3.78;1.77;;;20.60;99.20;;;;;;4107515;28;20253;-67
2022/08/21 00:02:54;;;;;;;4.32;1.70;;;20.60;99.80;;;;;;4111115;28;20041;-67
2022/08/21 00:04:55;;;;;;;3.75;1.50;;;20.50;99.90;;;;;;4105189;28;20035;-67
2022/08/21 00:06:58;;;;;;;3.33;2.00;;;20.40;99.90;;;;;;4110209;28;20045;-68
2022/08/21 00:08:59;;;;;;;4.45;1.63;;;20.40;99.90;;;;;;4110588;28;20030;-68
2022/08/21 00:10:59;;;;;;;3.42;1.83;;;20.40;99.90;;;;;;4107308;28;20031;-68
2022/08/21 00:13:03;;;;;;;3.92;1.90;;;20.40;99.90;;;;;;4110745;28;20082;-67
2022/08/21 00:15:06;;;;;;;3.28;1.60;;;20.40;99.90;;;;;;4109853;28;20435;-68
2022/08/21 00:17:07;;;;;;;2.47;1.58;;;20.40;99.90;;;;;;4109351;28;20031;-67
2022/08/21 00:19:08;;;;;;;4.07;1.70;;;20.40;99.90;;;;;;4110696;28;20438;-67
2022/08/21 00:21:12;;;;;;;3.22;1.75;;;20.30;99.90;;;;;;4109171;28;20039;-68
2022/08/21 00:23:14;;;;;;;3.50;1.90;;;20.30;99.90;;;;;;4110174;28;20031;-66
2022/08/21 00:25:15;;;;;;;3.03;1.50;;;20.30;99.90;;;;;;4108883;28;20038;-68
2022/08/21 00:27:15;;;;;;;3.72;1.60;;;20.30;99.90;;;;;;4109994;28;20398;-68
2022/08/21 00:29:16;;;;;;;3.03;1.77;;;20.30;99.90;;;;;;4110733;28;20031;-67
2022/08/21 00:31:17;;;;;;;4.03;1.98;;;20.30;99.90;;;;;;4106779;28;20043;-67
2022/08/21 00:33:18;;;;;;;2.25;1.73;;;20.20;99.90;;;;;;4110766;28;20045;-68
2022/08/21 00:35:28;;;;;;;3.70;1.52;;;20.20;99.90;;;;;;4109708;28;20034;-68
2022/08/21 00:37:29;;;;;;;3.22;1.80;;;20.20;99.90;;;;;;4110553;28;20507;-68
2022/08/21 00:39:30;;;;;;;3.08;1.63;;;20.10;99.90;;;;;;4110623;28;20044;-67
2022/08/21 00:41:30;;;;;;;2.92;1.50;;;20.10;99.90;;;;;;4109375;28;20508;-68
2022/08/21 00:43:33;;;;;;;3.10;1.60;;;20.00;99.90;;;;;;4110620;28;20104;-68
2022/08/21 00:45:34;;;;;;;3.40;1.25;;;20.10;99.90;;;;;;4110429;28;20030;-68
2022/08/21 00:47:35;;;;;;;4.45;1.77;;;20.00;99.90;;;;;;4110081;28;20121;-68
2022/08/21 00:49:36;;;;;;;3.30;1.80;;;20.00;99.90;;;;;;4110257;28;20061;-68
2022/08/21 00:51:48;;;;;;;3.42;1.80;;;19.90;99.90;;;;;;4108018;28;20031;-68
2022/08/21 00:53:55;;;;;;;3.88;1.52;;;19.90;99.90;;;;;;4110239;28;20034;-68
2022/08/21 00:55:59;;;;;;;4.45;1.88;;;19.90;99.90;;;;;;4105664;28;20043;-67
2022/08/21 00:58:02;;;;;;;3.38;1.83;;;19.80;99.90;;;;;;4113879;28;20397;-67
2022/08/21 01:00:06;;;;;;;3.10;1.83;;;19.80;99.90;;;;;;4113898;28;20046;-68
2022/08/21 01:02:09;;;;;;;4.95;2.00;;;19.70;99.90;;;;;;4109947;28;20077;-68
2022/08/21 01:04:11;;;;;;;3.92;1.60;;;19.70;99.90;;;;;;4113406;28;20035;-68
2022/08/21 01:06:13;;;;;;;2.93;1.90;;;19.70;99.90;;;;;;4110459;28;20050;-68
2022/08/21 01:08:16;;;;;;;2.42;1.60;;;19.70;99.90;;;;;;4112770;28;20042;-67
2022/08/21 01:10:18;;;;;;;3.70;2.17;;;19.70;99.90;;;;;;4107606;28;20023;-67
2022/08/21 01:12:18;;;;;;;3.88;1.80;;;19.70;99.90;;;;;;4111646;28;20042;-67
2022/08/21 01:14:20;;;;;;;3.08;1.98;;;19.70;99.90;;;;;;4112439;28;20027;-68
2022/08/21 01:16:22;;;;;;;3.47;1.70;;;19.60;99.90;;;;;;4112571;28;20131;-68
2022/08/21 01:18:23;;;;;;;4.03;1.77;;;19.60;99.90;;;;;;4112588;28;20135;-67
2022/08/21 01:20:24;;;;;;;3.58;1.88;;;19.60;99.90;;;;;;4111033;28;20434;-68
2022/08/21 01:22:26;;;;;;;3.22;1.83;;;19.60;99.90;;;;;;4112819;28;20027;-67
2022/08/21 01:24:26;;;;;;;2.60;1.50;;;19.60;99.90;;;;;;4113556;28;20031;-67
2022/08/21 01:26:31;;;;;;;3.60;2.08;;;19.60;99.90;;;;;;4112710;28;20046;-67
2022/08/21 01:28:38;;;;;;;2.85;1.77;;;19.60;99.90;;;;;;4112543;28;20085;-68
2022/08/21 01:30:41;;;;;;;4.07;2.10;;;19.60;99.90;;;;;;4110463;28;20380;-68
2022/08/21 01:32:42;;;;;;;3.03;1.80;;;19.60;99.90;;;;;;4112566;28;20031;-67
2022/08/21 01:34:45;;;;;;;2.22;1.80;;;19.50;99.90;;;;;;4110281;28;20026;-66
2022/08/21 01:36:46;;;;;;;2.53;1.83;;;19.50;99.90;;;;;;4112285;28;20494;-67
2022/08/21 01:38:47;;;;;;;3.00;1.83;;;19.50;99.90;;;;;;4114458;28;20042;-67
2022/08/21 01:40:48;;;;;;;3.38;1.85;;;19.50;99.90;;;;;;4108697;28;20043;-67
2022/08/21 01:42:48;;;;;;;3.20;1.70;;;19.50;99.90;;;;;;4100854;28;20042;-67
2022/08/21 01:44:49;;;;;;;4.25;1.80;;;19.50;99.90;;;;;;4113797;28;20117;-67
2022/08/21 01:46:50;;;;;;;3.05;1.65;;;19.40;99.90;;;;;;4113351;28;20125;-67
2022/08/21 01:48:51;;;;;;;3.25;2.15;;;19.40;99.90;;;;;;4113029;28;20042;-68
2022/08/21 01:50:51;;;;;;;3.60;2.10;;;19.40;99.90;;;;;;4111136;28;20054;-67
2022/08/21 01:52:52;;;;;;;2.97;2.05;;;19.40;99.90;;;;;;4111645;28;20061;-67
2022/08/21 01:54:52;;;;;;;2.08;1.60;;;19.30;99.90;;;;;;4114369;28;20049;-67
2022/08/21 01:56:54;;;;;;;4.10;1.80;;;19.30;99.90;;;;;;4111974;28;20471;-67
2022/08/21 01:58:55;;;;;;;5.50;1.60;;;19.30;99.90;;;;;;4114182;28;20031;-68
2022/08/21 02:00:55;;;;;;;3.30;1.80;;;19.30;99.90;;;;;;4093931;29;20027;-67
2022/08/21 02:02:56;;;;;;;4.50;2.22;;;19.30;99.90;;;;;;4113743;28;20031;-67
2022/08/21 02:04:56;;;;;;;3.65;2.33;;;19.30;99.90;;;;;;4114241;28;20431;-68
2022/08/21 02:06:57;;;;;;;3.15;1.77;;;19.20;99.90;;;;;;4108385;28;20026;-68
2022/08/21 02:08:58;;;;;;;4.82;1.80;;;19.20;99.90;;;;;;4112565;28;20039;-67
2022/08/21 02:10:59;;;;;;;3.35;2.00;;;19.20;99.90;;;;;;4111997;28;20035;-68
2022/08/21 02:13:00;;;;;;;4.22;2.10;;;19.20;99.90;;;;;;4114020;28;20039;-68
2022/08/21 02:15:03;;;;;;;3.00;1.70;;;19.20;99.90;;;;;;4113899;28;20490;-68
2022/08/21 02:17:04;;;;;;;3.58;1.88;;;19.20;99.90;;;;;;4112533;28;20478;-68
2022/08/21 02:19:05;;;;;;;3.78;1.75;;;19.20;99.90;;;;;;4113164;28;20038;-68
2022/08/21 02:21:06;;;;;;;2.58;1.83;;;19.10;99.90;;;;;;4110402;28;20030;-68
2022/08/21 02:23:10;;;;;;;2.75;1.90;;;19.10;99.90;;;;;;4113728;28;20378;-67
2022/08/21 02:25:11;;;;;;;3.92;1.80;;;19.20;99.90;;;;;;4112433;28;20053;-67
2022/08/21 02:27:11;;;;;;;3.10;1.67;;;19.10;99.90;;;;;;4112726;28;20167;-67
2022/08/21 02:29:12;;;;;;;3.25;1.80;;;19.10;99.90;;;;;;4113307;28;20413;-68
2022/08/21 02:31:13;;;;;;;3.10;2.20;;;19.00;99.90;;;;;;4111950;28;20034;-68
2022/08/21 02:33:15;;;;;;;3.97;2.10;;;19.00;99.90;;;;;;4113581;28;20037;-67
2022/08/21 02:35:16;;;;;;;4.72;2.30;;;19.00;99.90;;;;;;4111955;28;20027;-66
2022/08/21 02:37:16;;;;;;;5.82;2.28;;;18.90;99.90;;;;;;4113843;28;20042;-67
2022/08/21 02:39:17;;;;;;;3.25;1.85;;;18.90;99.90;;;;;;4113250;28;20517;-67
2022/08/21 02:41:20;;;;;;;3.25;2.00;;;18.90;99.90;;;;;;4110490;28;20039;-67
2022/08/21 02:43:23;;;;;;;3.75;2.08;;;18.80;99.90;;;;;;4113536;28;20366;-67
2022/08/21 02:45:23;;;;;;;3.55;1.85;;;18.80;99.90;;;;;;4112240;28;20031;-67
2022/08/21 02:47:24;;;;;;;4.00;2.28;;;18.80;99.90;;;;;;4107872;28;20617;-67
2022/08/21 02:49:25;;;;;;;3.88;2.17;;;18.80;99.90;;;;;;4113601;28;20031;-67
2022/08/21 02:51:25;;;;;;;2.55;1.77;;;18.80;99.90;;;;;;4110000;28;20038;-67
2022/08/21 02:53:27;;;;;;;2.85;2.10;;;18.80;99.90;;;;;;4112535;28;20490;-67
2022/08/21 02:55:30;;;;;;;3.55;2.05;;;18.80;99.90;;;;;;4112227;28;20415;-68
2022/08/21 02:57:32;;;;;;;3.92;1.95;;;18.80;99.90;;;;;;4113393;28;20031;-68
2022/08/21 02:59:33;;;;;;;;;;;18.80;99.90;;;;;;4111899;28;20062;-67
2022/08/21 03:01:34;;;;;;;3.45;2.20;;;18.80;99.90;;;;;;4110444;28;19954;-67
2022/08/21 03:03:35;;;;;;;2.67;1.75;;;18.70;99.90;;;;;;4113150;28;20034;-68
2022/08/21 03:05:37;;;;;;;3.17;2.10;;;18.70;99.90;;;;;;4111914;28;20042;-67
2022/08/21 03:07:39;;;;;;;3.80;2.40;;;18.70;99.90;;;;;;4110689;28;20042;-68
2022/08/21 03:09:39;;;;;;;3.63;2.43;;;18.70;99.90;;;;;;4109353;28;20027;-67
2022/08/21 03:11:40;;;;;;;4.63;2.20;;;18.70;99.90;;;;;;4108023;28;20069;-67
2022/08/21 03:13:41;;;;;;;3.50;2.17;;;18.70;99.90;;;;;;4113019;28;20490;-67
2022/08/21 03:15:42;;;;;;;4.30;2.25;;;18.70;99.90;;;;;;4112198;28;20224;-67
2022/08/21 03:17:45;;;;;;;5.73;2.03;;;18.70;99.90;;;;;;4113009;28;20093;-67
2022/08/21 03:19:46;;;;;;;4.32;2.72;;;18.70;99.90;;;;;;4111283;28;20267;-68
2022/08/21 03:21:46;;;;;;;4.43;2.72;;;18.70;99.90;;;;;;4111086;28;20117;-67
2022/08/21 03:23:47;;;;;;;3.45;2.70;;;18.70;99.90;;;;;;4112863;28;20037;-67
2022/08/21 03:25:50;;;;;;;4.72;2.50;;;18.60;99.90;;;;;;4110990;28;20114;-68
2022/08/21 03:27:51;;;;;;;4.20;2.70;;;18.60;99.90;;;;;;4112266;28;20051;-67
2022/08/21 03:29:53;;;;;;;5.00;2.63;;;18.60;99.90;;;;;;4112878;28;20118;-67
2022/08/21 03:31:54;;;;;;;4.32;2.70;;;18.60;99.90;;;;;;4109630;28;20121;-67
2022/08/21 03:33:56;;;;;;;5.75;2.83;;;18.50;99.90;;;;;;4112441;28;20089;-66
2022/08/21 03:36:00;;;;;;;3.65;2.55;;;18.50;99.90;;;;;;4106482;28;20027;-67
2022/08/21 03:38:01;;;;;;;5.32;2.80;;;18.40;99.90;;;;;;4111653;28;20097;-67
2022/08/21 03:40:04;;;;;;;6.32;2.63;;;18.40;99.90;;;;;;4102406;28;20027;-67
2022/08/21 03:42:06;;;;;;;4.65;2.90;;;18.40;99.90;;;;;;4108874;28;20549;-68
2022/08/21 03:44:06;;;;;;;5.40;2.53;;;18.40;99.90;;;;;;4111834;28;20351;-68
2022/08/21 03:46:07;;;;;;;4.60;2.47;;;18.40;99.90;;;;;;4111462;28;20033;-67
2022/08/21 03:48:09;;;;;;;3.75;2.63;;;18.40;99.90;;;;;;4094282;28;20122;-66
2022/08/21 03:50:09;;;;;;;3.50;2.65;;;18.40;99.90;;;;;;4109120;28;20054;-67
2022/08/21 03:52:10;;;;;;;5.85;2.20;;;18.40;99.90;;;;;;4109828;28;20067;-68
2022/08/21 03:54:11;;;;;;;3.33;2.33;;;18.40;99.90;;;;;;4112419;28;20027;-67
2022/08/21 03:56:12;;;;;;;4.80;2.40;;;18.40;99.90;;;;;;4111477;28;20030;-67
2022/08/21 03:58:14;;;;;;;2.50;1.90;;;18.40;99.90;;;;;;4112584;28;20113;-67
2022/08/21 04:00:16;;;;;;;;;;;18.40;99.90;;;;;;4111638;28;20062;-66
2022/08/21 04:02:19;;;;;;;4.65;2.20;;;18.50;99.90;;;;;;4109728;28;20322;-66
2022/08/21 04:04:20;;;;;;;2.63;2.05;;;18.40;99.90;;;;;;4112453;28;20034;-67
2022/08/21 04:06:20;;;;;;;2.80;2.03;;;18.40;99.90;;;;;;4111576;28;20377;-67
2022/08/21 04:08:21;;;;;;;2.83;2.45;;;18.40;99.90;;;;;;4112102;28;20038;-67
2022/08/21 04:10:24;;;;;;;2.75;1.95;;;18.30;99.90;;;;;;4110127;28;20651;-67
2022/08/21 04:12:24;;;;;;;;;;;18.40;99.90;;;;;;4111365;28;20121;-67
2022/08/21 04:14:25;;;;;;;3.63;2.10;;;18.30;99.90;;;;;;4111634;28;19917;-66
2022/08/21 04:16:25;;;;;;;4.30;2.40;;;18.30;99.90;;;;;;4108378;28;20023;-66
2022/08/21 04:18:26;;;;;;;3.97;2.20;;;18.30;99.90;;;;;;4111160;28;20050;-66
2022/08/21 04:20:27;;;;;;;4.85;2.00;;;18.30;99.90;;;;;;4110025;28;20027;-66
2022/08/21 04:22:27;;;;;;;2.67;2.00;;;18.30;99.90;;;;;;4111843;28;20086;-66
2022/08/21 04:24:28;;;;;;;5.53;2.20;;;18.30;99.90;;;;;;4112354;28;20026;-66
2022/08/21 04:26:30;;;;;;;2.60;2.08;;;18.30;99.90;;;;;;4110646;28;20038;-67
2022/08/21 04:28:31;;;;;;;4.10;2.35;;;18.30;99.90;;;;;;4095087;28;20035;-67
2022/08/21 04:30:31;;;;;;;4.60;2.30;;;18.30;99.90;;;;;;4112696;28;20034;-66
2022/08/21 04:32:32;;;;;;;3.15;2.22;;;18.30;99.90;;;;;;4116593;28;20089;-67
2022/08/21 04:34:33;;;;;;;3.88;2.30;;;18.30;99.90;;;;;;4117120;28;20035;-67
2022/08/21 04:36:33;;;;;;;3.72;2.22;;;18.30;99.90;;;;;;4115820;28;20023;-67
2022/08/21 04:38:34;;;;;;;3.97;2.45;;;18.30;99.90;;;;;;4118926;28;20102;-66
2022/08/21 04:40:36;;;;;;;4.68;3.30;;;18.20;99.90;;;;;;4096524;28;20034;-66
2022/08/21 04:42:44;;;;;;;3.85;2.13;;;18.20;99.90;;;;;;4112110;28;20035;-67
2022/08/21 04:44:47;;;;;;;2.95;2.33;;;18.20;99.90;;;;;;4116541;28;20027;-66
2022/08/21 04:46:47;;;;;;;5.00;3.00;;;18.20;99.90;;;;;;4114157;28;20049;-66
2022/08/21 04:48:48;;;;;;;2.90;2.40;;;18.20;99.90;;;;;;4114403;28;20545;-65
2022/08/21 04:51:15;;;;;;;4.85;3.22;;;18.20;99.90;;;;;;4113955;28;20118;-66
2022/08/21 04:53:39;;;;;;;7.05;3.40;;;18.20;99.90;;;;;;4117458;28;20488;-66
2022/08/21 04:55:41;;;;;;;7.55;3.60;;;18.20;99.90;;;;;;4112120;28;20057;-67
2022/08/21 04:57:42;;;;;;;7.25;4.18;;;18.30;99.90;;;;;;4115978;28;20027;-66
2022/08/21 04:59:47;;;;;;;4.80;3.40;;;18.20;99.90;;;;;;4109493;28;20438;-66
2022/08/21 05:01:48;;;;;;;5.38;3.65;;;18.30;99.90;;;;;;4105512;28;20023;-66
2022/08/21 05:03:54;;;;;;;5.90;4.00;;;18.30;99.90;;;;;;4116334;28;20121;-67
2022/08/21 05:05:55;;;;;;;8.02;3.65;;;18.30;99.90;;;;;;4112647;28;20038;-66
2022/08/21 05:07:58;;;;;;;5.40;3.42;;;18.30;99.90;;;;;;4111956;28;20058;-66
2022/08/21 05:10:00;;;;;;;5.40;3.92;;;18.30;99.90;;;;;;4112135;28;20114;-67
2022/08/21 05:12:02;;;;;;;5.82;3.75;;;18.40;99.90;;;;;;4112783;28;20046;-67
2022/08/21 05:14:03;;;;;;;4.07;3.13;;;18.40;99.90;;;;;;4113334;28;20086;-66
2022/08/21 05:16:03;;;;;;;6.43;3.72;;;18.40;99.90;;;;;;4114749;28;20038;-67
2022/08/21 05:18:06;;;;;;;7.90;3.88;;;18.40;99.90;;;;;;4118305;28;20042;-69
2022/08/21 05:20:08;;;;;;;7.07;4.10;;;18.40;99.90;;;;;;4115109;28;20506;-66
2022/08/21 05:22:09;;;;;;;5.82;3.40;;;18.50;99.90;;;;;;4110747;28;20027;-66
2022/08/21 05:24:11;;;;;;;6.18;4.00;;;18.50;99.90;;;;;;4116923;28;20033;-66
2022/08/21 05:26:11;;;;;;;4.97;3.60;;;18.50;99.90;;;;;;4118478;28;20130;-67
2022/08/21 05:28:12;;;;;;;6.68;3.50;;;18.50;99.90;;;;;;4114014;28;20510;-67
2022/08/21 05:30:13;;;;;;;7.60;3.88;;;18.50;99.90;;;;;;4104993;28;20034;-67
2022/08/21 05:32:14;;;;;;;6.93;4.70;;;18.40;99.90;;;;;;4110748;28;20043;-67
2022/08/21 05:34:19;;;;;;;10.45;3.92;;;18.30;99.90;;;;;;4116824;28;20486;-67
2022/08/21 05:36:19;;;;;;;5.57;3.80;;;18.30;99.90;;;;;;4110663;28;20035;-66
2022/08/21 05:38:20;;;;;;;6.03;3.30;;;18.30;99.90;;;;;;4110876;28;20047;-69
2022/08/21 05:40:20;;;;;;;12.23;4.70;;;18.40;99.90;;;;;;4108565;28;20077;-69
2022/08/21 05:42:21;;;;;;;6.82;3.70;;;18.40;99.90;;;;;;4111166;28;20038;-69
2022/08/21 05:44:22;;;;;;;7.60;3.63;;;18.40;99.90;;;;;;4112528;28;20049;-70
2022/08/21 05:46:22;;;;;;;7.80;4.00;;;18.40;99.90;;;;;;4113496;28;20391;-69
2022/08/21 05:48:24;;;;;;;7.78;3.70;;;18.30;99.90;;;;;;4119020;28;20077;-72
2022/08/21 05:50:25;;;;;;;5.57;3.00;;;18.40;99.90;;;;;;4110822;28;20037;-69
2022/08/21 05:52:26;;;;;;;8.10;4.25;;;18.40;99.90;;;;;;4112730;28;20454;-69
2022/08/21 05:54:27;;;;;;;5.90;3.60;;;18.40;99.90;;;;;;4117602;28;20041;-69
2022/08/21 05:56:27;;;;;;;5.72;3.30;;;18.40;99.90;;;;;;4113885;28;20505;-70
2022/08/21 05:58:28;;;;;;;7.80;3.90;;;18.40;99.90;;;;;;4114116;28;20038;-69
2022/08/21 06:00:29;;;;;;;4.82;2.80;;;18.40;99.90;;;;;;4109874;28;20097;-69
2022/08/21 06:02:30;;;;;;;5.45;3.55;;;18.40;99.90;;;;;;4113698;28;20039;-69
2022/08/21 06:04:36;;;;;;;6.53;3.47;;;18.40;99.90;;;;;;4114124;28;20537;-70
2022/08/21 06:06:36;;;;;;;7.93;3.92;;;18.50;99.90;;;;;;4120721;28;20031;-69
2022/08/21 06:08:37;;;;;;;6.90;3.40;;;18.40;99.90;;;;;;4116033;28;20031;-69
2022/08/21 06:10:38;;;;;;;6.70;3.95;;;18.40;99.90;;;;;;4112152;28;20090;-69
2022/08/21 06:12:38;;;;;;;8.15;4.00;;;18.40;99.90;;;;;;4113230;28;20050;-71
2022/08/21 06:14:40;;;;;;;6.50;3.38;;;18.40;99.90;;;;;;4115202;28;20042;-70
2022/08/21 06:16:41;;;;;;;6.13;3.30;;;18.50;99.90;;;;;;4109608;28;20034;-69
2022/08/21 06:18:43;;;;;;;6.05;3.10;;;18.50;99.90;;;;;;4112381;28;20402;-69
2022/08/21 06:20:44;;;;;;;7.40;3.78;;;18.60;99.90;;;;;;4109171;28;20039;-69
2022/08/21 06:22:45;;;;;;;9.35;3.92;;;18.60;99.90;;;;;;4115418;28;20543;-69
2022/08/21 06:24:45;;;;;;;9.32;4.00;;;18.50;99.90;;;;;;4119581;28;20063;-70
2022/08/21 06:26:46;;;;;;;7.88;2.92;;;18.60;99.90;;;;;;4118268;28;20109;-71
2022/08/21 06:28:46;;;;;;;6.85;2.85;;;18.60;99.90;;;;;;4115607;28;20437;-70
2022/08/21 06:30:47;;;;;;;6.20;3.28;;;18.60;99.90;;;;;;4111825;28;20034;-68
2022/08/21 06:32:48;;;;;;;5.82;2.72;;;18.70;99.90;;;;;;4119725;28;20041;-69
2022/08/21 06:34:48;;;;;;;7.88;3.17;;;18.70;99.90;;;;;;4111086;28;20494;-70
2022/08/21 06:36:49;;;;;;;6.32;3.00;;;18.70;99.90;;;;;;4116148;28;20417;-70
2022/08/21 06:38:50;;;;;;;6.35;3.17;;;18.80;99.90;;;;;;4116849;28;20119;-69
2022/08/21 06:40:50;;;;;;;4.97;2.78;;;18.90;99.90;;;;;;4117314;28;20039;-70
2022/08/21 06:42:51;;;;;;;11.77;3.88;;;18.90;99.90;;;;;;4118779;28;20640;-71
2022/08/21 06:44:51;;;;;;;10.85;3.20;;;19.00;99.90;;;;;;4120063;28;20093;-71
2022/08/21 06:46:52;;;;;;;6.18;3.33;;;19.20;99.90;;;;;;4115969;28;20034;-71
2022/08/21 06:48:53;;;;;;;6.05;2.38;;;19.40;99.90;;;;;;4117302;28;20043;-70
2022/08/21 06:50:55;;;;;;;7.80;2.95;;;19.80;99.90;;;;;;4111393;28;20497;-70
2022/08/21 06:53:01;;;;;;;6.20;3.17;;;20.30;99.90;;;;;;4110547;28;20038;-71
2022/08/21 06:55:05;;;;;;;5.45;2.63;;;20.60;99.90;;;;;;4119573;28;20089;-70
2022/08/21 06:57:06;;;;;;;7.50;2.55;;;21.10;99.90;;;;;;4117104;28;20034;-70
2022/08/21 06:59:06;;;;;;;6.03;2.30;;;21.50;99.90;;;;;;4119117;28;20038;-70
2022/08/21 07:01:07;;;;;;;3.67;1.92;;;22.10;99.90;;;;;;4114699;28;20459;-71
2022/08/21 07:03:17;;;;;;;6.57;2.40;;;22.50;99.90;;;;;;4117816;28;20351;-71
2022/08/21 07:05:18;;;;;;;6.90;2.53;;;22.90;99.90;;;;;;4113201;28;20031;-69
2022/08/21 07:07:18;;;;;;;5.05;2.53;;;23.20;99.90;;;;;;4118248;28;20042;-70
2022/08/21 07:09:19;;;;;;;5.28;2.40;;;23.40;99.90;;;;;;4115171;28;20030;-69
2022/08/21 07:11:22;;;;;;;4.05;2.17;;;23.70;99.90;;;;;;4110215;28;20050;-68
2022/08/21 07:13:23;;;;;;;7.78;2.58;;;23.90;99.30;;;;;;4112195;28;20035;-69
2022/08/21 07:15:23;;;;;;;7.82;2.90;;;24.10;98.20;;;;;;4094742;28;20035;-69
2022/08/21 07:17:24;;;;;;;7.25;2.53;;;24.10;98.10;;;;;;4098115;28;20039;-70
2022/08/21 07:19:24;;;;;;;7.30;2.72;;;24.20;97.60;;;;;;4108719;28;20023;-70
2022/08/21 07:21:25;;;;;;;9.30;2.38;;;24.40;97.10;;;;;;4111183;28;20171;-69
2022/08/21 07:23:32;;;;;;;3.75;2.33;;;24.50;97.00;;;;;;4112124;28;20023;-69
2022/08/21 07:25:33;;;;;;;4.38;1.60;;;24.50;97.30;;;;;;4111166;28;20114;-69
2022/08/21 07:27:33;;;;;;;7.70;2.42;;;24.60;97.60;;;;;;4116838;28;20577;-70
2022/08/21 07:29:34;;;;;;;7.82;2.40;;;24.40;97.60;;;;;;4120196;28;20054;-68
2022/08/21 07:31:35;;;;;;;5.97;2.50;;;24.30;97.40;;;;;;4111603;28;20793;-69
2022/08/21 07:33:36;;;;;;;10.05;2.67;;;24.00;95.80;;;;;;4112111;28;20035;-68
2022/08/21 07:35:36;;;;;;;5.20;1.88;;;23.90;97.20;;;;;;4112015;28;20046;-70
2022/08/21 07:37:37;;;;;;;5.80;2.17;;;23.80;96.90;;;;;;4112443;28;20031;-69
2022/08/21 07:39:38;;;;;;;5.22;1.73;;;23.70;96.80;;;;;;4112751;28;20053;-69
2022/08/21 07:41:38;;;;;;;3.00;1.73;;;23.70;98.10;;;;;;4110260;28;20070;-70
2022/08/21 07:43:41;;;;;;;6.53;1.95;;;23.60;97.40;;;;;;4109082;28;20477;-69
2022/08/21 07:45:41;;;;;;;4.57;2.03;;;23.60;96.90;;;;;;4111573;28;20030;-70
2022/08/21 07:47:42;;;;;;;4.25;1.70;;;23.60;97.10;;;;;;4110293;28;20061;-70
2022/08/21 07:49:43;;;;;;;3.85;1.45;;;23.50;96.20;;;;;;4109577;28;20035;-69
2022/08/21 07:51:43;;;;;;;6.65;1.55;;;23.60;97.10;;;;;;4109915;28;20049;-70
2022/08/21 07:53:51;;;;;;;3.70;1.40;;;23.70;96.50;;;;;;4111182;28;20410;-70
2022/08/21 07:55:52;;;;;;;6.15;2.03;;;23.60;96.70;;;;;;4111488;28;20465;-70
2022/08/21 07:57:52;;;;;;;5.35;1.90;;;23.60;96.40;;;;;;4112558;28;20030;-71
2022/08/21 07:59:53;;;;;;;3.05;1.35;;;23.60;96.60;;;;;;4112357;28;20039;-71
2022/08/21 08:01:53;;;;;;;3.78;1.60;;;23.70;96.40;;;;;;4108863;28;20034;-70
2022/08/21 08:03:55;;;;;;;4.75;1.42;;;23.80;97.50;;;;;;4110761;28;20058;-70
2022/08/21 08:05:56;;;;;;;4.20;1.30;;;23.80;96.80;;;;;;4093552;28;20090;-70
2022/08/21 08:07:57;;;;;;;4.68;1.38;;;24.00;96.50;;;;;;4111901;28;20432;-71
2022/08/21 08:09:58;;;;;;;4.65;1.42;;;24.10;97.10;;;;;;4112075;28;20045;-71
2022/08/21 08:11:58;;;;;;;4.30;1.58;;;24.10;96.90;;;;;;4108611;28;20521;-70
2022/08/21 08:13:59;;;;;;;3.10;1.25;;;24.10;95.90;;;;;;4111498;28;20514;-69
2022/08/21 08:16:00;;;;;;;3.83;1.27;;;24.20;96.30;;;;;;4111224;28;20050;-71
2022/08/21 08:18:00;;;;;;;2.55;1.15;;;24.20;95.40;;;;;;4110736;28;20039;-71
2022/08/21 08:20:02;;;;;;;5.05;1.42;;;24.20;96.10;;;;;;4111282;28;20118;-70
2022/08/21 08:22:12;;;;;;;5.43;1.52;;;24.20;95.50;;;;;;4109278;28;20511;-70
2022/08/21 08:24:13;;;;;;;3.50;1.27;;;24.30;94.80;;;;;;4110803;28;20549;-71
2022/08/21 08:26:15;;;;;;;5.10;1.52;;;24.30;96.10;;;;;;4110920;28;20031;-70
2022/08/21 08:28:16;;;;;;;5.18;1.42;;;24.30;95.60;;;;;;4112133;28;20031;-71
2022/08/21 08:30:19;;;;;;;4.63;1.63;;;24.10;94.20;;;;;;4106475;28;20439;-71
2022/08/21 08:32:20;;;;;;;3.88;1.17;;;24.10;95.20;;;;;;4109644;28;20038;-71
2022/08/21 08:34:22;;;;;;;3.47;1.55;;;24.20;96.90;;;;;;4111030;28;20039;-72
2022/08/21 08:36:33;;;;;;;2.92;1.10;;;24.30;95.30;;;;;;4111352;28;20079;-71
2022/08/21 08:38:34;;;;;;;2.25;1.50;;;24.40;95.30;;;;;;4110466;28;20031;-71
2022/08/21 08:40:39;;;;;;;4.60;1.23;;;24.40;96.40;;;;;;4110762;28;20069;-71
2022/08/21 08:42:40;;;;;;;6.28;1.63;;;24.50;96.50;;;;;;4110860;28;20054;-71
2022/08/21 08:44:42;;;;;;;3.53;1.45;;;24.40;94.90;;;;;;4112207;28;20057;-71
2022/08/21 08:46:46;;;;;;;3.63;1.10;;;24.40;96.30;;;;;;4110000;28;20031;-71
2022/08/21 08:48:54;;;;;;;4.80;1.83;;;24.30;95.00;;;;;;4108745;28;20035;-71
2022/08/21 08:50:56;;;;;;;3.08;1.42;;;24.30;95.60;;;;;;4108503;28;20097;-70
2022/08/21 08:53:03;;;;;;;4.97;1.65;;;24.30;95.30;;;;;;4112133;28;20031;-70
2022/08/21 08:55:20;;;;;;;4.85;1.73;;;24.20;95.20;;;;;;4112990;28;20088;-72
2022/08/21 08:57:23;;;;;;;3.75;1.20;;;24.20;95.20;;;;;;4118027;28;20109;-69
2022/08/21 08:59:37;;;;;;;4.47;1.55;;;24.10;94.80;;;;;;4097232;28;20058;-70
2022/08/21 09:01:38;;;;;;;5.05;1.40;;;24.10;95.40;;;;;;4110523;28;20027;-70
2022/08/21 09:03:40;;;;;;;7.50;1.83;;;24.10;95.70;;;;;;4110049;28;20576;-70
2022/08/21 09:05:47;;;;;;;4.43;1.73;;;24.10;95.10;;;;;;4110484;28;20478;-70
2022/08/21 09:08:12;;;;;;;5.93;1.98;;;24.10;96.00;;;;;;4111693;28;20495;-71
2022/08/21 09:10:22;;;;;;;3.67;1.40;;;24.20;94.90;;;;;;4110640;28;20035;-70
2022/08/21 09:12:31;;;;;;;4.32;1.42;;;24.30;96.40;;;;;;4092315;28;20056;-70
2022/08/21 09:14:56;;;;;;;6.78;1.83;;;24.40;95.80;;;;;;4111202;28;20039;-71
2022/08/21 09:17:33;;;;;;;9.05;2.08;;;24.50;95.30;;;;;;4089296;28;20505;-73
2022/08/21 09:19:59;;;;;;;6.30;1.83;;;24.50;94.80;;;;;;4113514;28;20490;-71
2022/08/21 09:22:29;;;;;;;3.17;1.45;;;24.70;94.90;;;;;;4110921;28;20570;-71
2022/08/21 09:24:57;;;;;;;3.28;1.38;;;24.80;95.30;;;;;;4114300;28;20085;-71
2022/08/21 09:27:11;;;;;;;4.78;2.08;;;24.90;95.00;;;;;;4113451;28;20035;-71
2022/08/21 09:29:12;;;;;;;5.72;1.60;;;24.90;94.30;;;;;;4114250;28;20517;-70
2022/08/21 09:31:27;;;;;;;6.30;1.58;;;25.00;94.00;;;;;;4111973;28;20035;-70
2022/08/21 09:33:28;;;;;;;5.53;1.98;;;24.90;93.40;;;;;;4107440;28;20041;-71
2022/08/21 09:35:29;;;;;;;4.25;1.40;;;24.90;94.20;;;;;;4113226;28;20035;-71
2022/08/21 09:37:34;;;;;;;3.38;1.33;;;25.00;93.90;;;;;;4114571;28;20394;-72
2022/08/21 09:39:39;;;;;;;4.22;1.77;;;25.00;94.30;;;;;;4114045;28;20093;-70
2022/08/21 09:41:40;;;;;;;2.92;1.45;;;25.10;95.50;;;;;;4110926;28;20038;-71
2022/08/21 09:43:53;;;;;;;4.32;1.30;;;25.20;93.60;;;;;;4113944;28;20031;-71
2022/08/21 09:46:10;;;;;;;2.90;1.38;;;25.30;94.70;;;;;;4113043;28;20039;-71
2022/08/21 09:48:14;;;;;;;2.78;1.05;;;25.30;93.60;;;;;;4090764;28;20047;-71
2022/08/21 09:50:19;;;;;;;2.53;1.20;;;25.40;93.70;;;;;;4111378;28;20391;-69
2022/08/21 09:52:22;;;;;;;2.53;1.10;;;25.40;91.70;;;;;;4113519;28;20110;-70
2022/08/21 09:54:29;;;;;;;3.22;1.15;;;25.40;92.80;;;;;;4114441;28;20523;-71
2022/08/21 09:58:53;;;;;;;2.55;1.05;;;25.50;92.40;;;;;;4113161;28;20045;-70
2022/08/21 10:00:59;;;;;;;2.50;1.10;;;25.60;92.90;;;;;;4111622;28;20405;-71
2022/08/21 10:03:16;;;;;;;3.00;1.13;;;25.60;91.30;;;;;;4113837;28;20046;-71
2022/08/21 10:05:26;;;;;;;3.92;1.10;;;25.70;91.30;;;;;;4113293;28;20035;-71
2022/08/21 10:07:29;;;;;;;3.05;1.40;;;25.70;91.40;;;;;;4112073;28;20126;-71
2022/08/21 10:09:30;;;;;;;3.90;1.20;;;25.70;90.80;;;;;;4114256;28;20383;-71
2022/08/21 10:11:33;;;;;;;3.65;1.02;;;25.70;91.40;;;;;;4109830;28;20035;-70
2022/08/21 10:13:44;;;;;;;2.17;0.90;;;25.80;91.00;;;;;;4107707;28;20121;-69
2022/08/21 10:15:59;;;;;;;2.47;1.08;;;25.70;90.20;;;;;;4112076;28;20133;-70
2022/08/21 10:18:17;;;;;;;3.75;1.65;;;25.70;91.20;;;;;;4110773;28;20026;-71
2022/08/21 10:20:28;;;;;;;2.53;1.15;;;25.70;91.70;;;;;;4112203;28;20425;-71
2022/08/21 10:23:06;;;;;;;2.60;1.05;;;25.70;91.70;;;;;;4113419;28;20027;-70
2022/08/21 10:25:20;;;;;;;2.67;0.90;;;25.70;90.90;;;;;;4112906;28;20474;-70
2022/08/21 10:27:37;;;;;;;5.32;1.20;;;25.70;90.20;;;;;;4109675;28;20129;-70
2022/08/21 10:29:56;;;;;;;3.05;1.23;;;25.60;90.30;;;;;;4113385;28;20085;-70
2022/08/21 10:32:07;;;;;;;1.25;0.77;;;25.70;90.30;;;;;;4107472;28;20041;-70
2022/08/21 10:34:29;;;;;;;3.30;0.88;;;25.60;89.90;;;;;;4113506;28;20490;-69
2022/08/21 10:36:35;;;;;;;3.90;1.17;;;25.70;89.00;;;;;;4112679;28;20038;-70
2022/08/21 10:38:55;;;;;;;7.57;1.70;;;25.70;90.00;;;;;;4109571;28;20500;-70
2022/08/21 10:41:02;;;;;;;2.85;1.08;;;25.70;89.50;;;;;;4110365;28;20027;-69
2022/08/21 10:43:25;;;;;;;3.42;1.08;;;25.60;88.30;;;;;;4109414;28;20041;-69
2022/08/21 10:45:38;;;;;;;2.38;0.70;;;25.60;90.00;;;;;;4111362;28;20092;-70